createdAt,value
2022-09-12T00:01:54.043Z,99011.91
2022-09-12T00:04:20.754Z,99007.44
2022-09-12T00:06:47.330Z,98999.03
2022-09-12T00:09:14.759Z,98997.53
2022-09-12T00:11:45.464Z,99002.38
2022-09-12T00:14:16.810Z,99000.72
2022-09-12T00:16:44.108Z,99000.84
2022-09-12T00:19:11.506Z,99003.38
2022-09-12T00:21:40.304Z,98998.13
2022-09-12T00:24:08.110Z,98995.00
2022-09-12T00:26:34.876Z,98997.56
2022-09-12T00:29:01.597Z,98999.97
2022-09-12T00:31:28.618Z,99001.31
2022-09-12T00:33:58.121Z,98995.47
2022-09-12T00:36:26.472Z,98993.50
2022-09-12T00:38:56.008Z,98986.91
2022-09-12T00:41:35.526Z,98985.59
2022-09-12T00:44:12.773Z,98994.06
2022-09-12T00:46:49.234Z,98985.84
2022-09-12T00:49:26.384Z,98989.03
2022-09-12T00:52:03.762Z,98981.91
2022-09-12T00:54:39.061Z,98971.16
2022-09-12T00:57:09.611Z,98975.09
2022-09-12T00:59:46.818Z,98978.72
2022-09-12T01:02:13.657Z,98980.97
2022-09-12T01:04:41.649Z,98973.91
2022-09-12T01:07:08.905Z,98978.72
2022-09-12T01:09:38.721Z,98973.91
2022-09-12T01:12:06.534Z,98973.63
2022-09-12T01:14:34.534Z,98977.34
2022-09-12T01:17:01.578Z,98975.69
2022-09-12T01:19:49.674Z,98972.72
2022-09-12T01:22:54.297Z,98975.09
2022-09-12T01:25:51.134Z,98964.91
2022-09-12T01:28:45.743Z,98963.84
2022-09-12T01:31:55.725Z,98957.28
2022-09-12T01:34:58.273Z,98964.44
2022-09-12T01:38:12.493Z,98955.47
2022-09-12T01:41:05.569Z,98958.59
2022-09-12T01:43:59.494Z,98961.56
2022-09-12T01:46:42.799Z,98959.06
2022-09-12T01:49:52.760Z,98955.19
2022-09-12T01:52:34.585Z,98957.13
2022-09-12T01:55:16.829Z,98954.09
2022-09-12T01:57:53.976Z,98961.16
2022-09-12T02:00:20.774Z,98948.41
2022-09-12T02:03:02.604Z,98947.94
2022-09-12T02:05:38.938Z,98935.09
2022-09-12T02:08:28.611Z,98952.00
2022-09-12T02:11:03.605Z,98939.41
2022-09-12T02:13:47.865Z,98945.72
2022-09-12T02:16:40.414Z,98943.75
2022-09-12T02:19:16.350Z,98941.25
2022-09-12T02:21:58.282Z,98937.50
2022-09-12T02:24:31.132Z,98937.34
2022-09-12T02:27:05.008Z,98939.88
2022-09-12T02:29:31.714Z,98943.28
2022-09-12T02:32:05.691Z,98933.09
2022-09-12T02:34:55.422Z,98937.34
2022-09-12T02:38:02.529Z,98930.44
2022-09-12T02:40:30.454Z,98929.06
2022-09-12T02:42:57.753Z,98941.75
2022-09-12T02:45:24.542Z,98936.88
2022-09-12T02:48:02.565Z,98937.28
2022-09-12T02:50:29.794Z,98931.03
2022-09-12T02:53:02.055Z,98938.75
2022-09-12T02:55:30.310Z,98940.81
2022-09-12T02:57:57.123Z,98936.06
2022-09-12T03:00:24.828Z,98929.63
2022-09-12T03:03:44.350Z,98928.19
2022-09-12T03:06:35.311Z,98932.72
2022-09-12T03:09:20.339Z,98932.56
2022-09-12T03:12:18.842Z,98917.22
2022-09-12T03:15:14.850Z,98926.69
2022-09-12T03:17:48.254Z,98924.06
2022-09-12T03:20:29.227Z,98922.25
2022-09-12T03:23:03.822Z,98931.25
2022-09-12T03:25:35.495Z,98924.63
2022-09-12T03:28:12.105Z,98931.78
2022-09-12T03:30:41.807Z,98932.06
2022-09-12T03:33:16.022Z,98929.28
2022-09-12T03:35:43.566Z,98924.00
2022-09-12T03:38:10.438Z,98925.75
2022-09-12T03:40:38.614Z,98931.06
2022-09-12T03:43:07.906Z,98924.78
2022-09-12T03:45:36.004Z,98923.44
2022-09-12T03:48:04.334Z,98927.31
2022-09-12T03:50:30.938Z,98930.72
2022-09-12T03:53:00.134Z,98936.28
2022-09-12T03:55:26.874Z,98935.50
2022-09-12T03:57:54.662Z,98930.47
2022-09-12T04:00:22.777Z,98932.56
2022-09-12T04:02:55.815Z,98932.59
2022-09-12T04:05:23.159Z,98930.63
2022-09-12T04:07:49.906Z,98940.28
2022-09-12T04:10:16.565Z,98931.78
2022-09-12T04:12:43.874Z,98933.88
2022-09-12T04:15:11.031Z,98937.00
2022-09-12T04:17:37.671Z,98934.28
2022-09-12T04:20:07.009Z,98933.88
2022-09-12T04:22:34.658Z,98933.34
2022-09-12T04:25:01.520Z,98931.66
2022-09-12T04:27:28.593Z,98931.94
2022-09-12T04:29:56.130Z,98927.88
2022-09-12T04:32:22.824Z,98932.59
2022-09-12T04:34:49.442Z,98931.19
2022-09-12T04:37:16.810Z,98928.41
2022-09-12T04:39:43.659Z,98930.75
2022-09-12T04:42:10.349Z,98928.69
2022-09-12T04:44:37.433Z,98937.34
2022-09-12T04:47:04.121Z,98934.31
2022-09-12T04:49:30.744Z,98935.75
2022-09-12T04:51:57.351Z,98927.97
2022-09-12T04:54:23.978Z,98925.09
2022-09-12T04:56:52.354Z,98940.88
2022-09-12T04:59:20.763Z,98937.22
2022-09-12T05:01:49.477Z,98934.69
2022-09-12T05:04:16.168Z,98933.06
2022-09-12T05:06:43.441Z,98930.13
2022-09-12T05:09:12.557Z,98931.09
2022-09-12T05:14:30.833Z,98939.13
2022-09-12T05:17:00.584Z,98938.38
2022-09-12T05:19:29.171Z,98941.56
2022-09-12T05:21:56.145Z,98943.78
2022-09-12T05:24:22.804Z,98938.72
2022-09-12T05:26:49.368Z,98941.41
2022-09-12T05:29:16.125Z,98938.53
2022-09-12T05:31:43.220Z,98933.56
2022-09-12T05:34:10.036Z,98942.00
2022-09-12T05:36:38.420Z,98937.47
2022-09-12T05:39:05.792Z,98940.81
2022-09-12T05:41:33.791Z,98945.44
2022-09-12T05:44:04.239Z,98941.13
2022-09-12T05:46:37.808Z,98951.91
2022-09-12T05:49:08.475Z,98936.72
2022-09-12T05:51:38.700Z,98937.03
2022-09-12T05:54:08.604Z,98938.38
2022-09-12T05:56:40.335Z,98939.59
2022-09-12T05:59:20.458Z,98939.00
2022-09-12T06:01:48.325Z,98942.88
2022-09-12T06:04:15.195Z,98944.22
2022-09-12T06:06:44.932Z,98942.16
2022-09-12T06:09:14.353Z,98940.50
2022-09-12T06:11:41.746Z,98941.00
2022-09-12T06:14:11.059Z,98949.19
2022-09-12T06:16:38.306Z,98943.75
2022-09-12T06:19:23.524Z,98946.28
2022-09-12T06:21:51.457Z,98945.25
2022-09-12T06:24:20.008Z,98942.13
2022-09-12T06:26:48.337Z,98947.69
2022-09-12T06:29:15.524Z,98937.81
2022-09-12T06:31:43.612Z,98949.13
2022-09-12T06:34:14.997Z,98946.00
2022-09-12T06:36:45.922Z,98944.25
2022-09-12T06:39:19.652Z,98943.91
2022-09-12T06:41:48.320Z,98946.28
2022-09-12T06:44:21.187Z,98940.88
2022-09-12T06:46:48.738Z,98934.13
2022-09-12T06:49:17.659Z,98933.34
2022-09-12T06:51:44.709Z,98928.72
2022-09-12T06:54:16.868Z,98934.75
2022-09-12T06:56:44.783Z,98931.72
2022-09-12T06:59:11.457Z,98941.38
2022-09-12T07:01:39.821Z,98946.13
2022-09-12T07:04:06.446Z,98944.66
2022-09-12T07:06:41.823Z,98942.13
2022-09-12T07:09:12.786Z,98944.91
2022-09-12T07:11:41.574Z,98940.75
2022-09-12T07:14:13.726Z,98931.56
2022-09-12T07:16:40.948Z,98940.22
2022-09-12T07:19:09.311Z,98941.47
2022-09-12T07:21:39.506Z,98942.13
2022-09-12T07:24:08.628Z,98927.00
2022-09-12T07:26:35.577Z,98936.16
2022-09-12T07:31:49.482Z,98931.88
2022-09-12T07:34:18.473Z,98934.03
2022-09-12T07:36:45.059Z,98925.78
2022-09-12T07:39:12.003Z,98932.47
2022-09-12T07:41:38.614Z,98924.59
2022-09-12T07:44:06.644Z,98928.66
2022-09-12T07:46:33.421Z,98931.31
2022-09-12T07:49:01.268Z,98923.06
2022-09-12T07:51:30.638Z,98915.84
2022-09-12T07:53:57.916Z,98920.13
2022-09-12T07:56:30.125Z,98923.13
2022-09-12T07:58:58.639Z,98924.16
2022-09-12T08:01:25.450Z,98930.59
2022-09-12T08:03:57.638Z,98925.78
2022-09-12T08:06:26.424Z,98925.41
2022-09-12T08:08:56.556Z,98931.69
2022-09-12T08:11:25.348Z,98934.66
2022-09-12T08:13:55.358Z,98931.03
2022-09-12T08:16:25.741Z,98939.75
2022-09-12T08:18:53.467Z,98939.75
2022-09-12T08:21:25.174Z,98927.38
2022-09-12T08:23:55.101Z,98940.97
2022-09-12T08:26:21.813Z,98935.81
2022-09-12T08:28:49.015Z,98939.41
2022-09-12T08:31:19.353Z,98938.06
2022-09-12T08:33:46.142Z,98941.56
2022-09-12T08:36:15.555Z,98945.31
2022-09-12T08:38:45.039Z,98941.75
2022-09-12T08:41:36.291Z,98946.44
2022-09-12T08:44:29.871Z,98938.34
2022-09-12T08:47:32.709Z,98942.25
2022-09-12T08:50:09.340Z,98944.91
2022-09-12T08:53:04.844Z,98936.88
2022-09-12T08:55:39.904Z,98938.41
2022-09-12T08:58:24.278Z,98940.41
2022-09-12T09:00:59.629Z,98942.63
2022-09-12T09:04:08.717Z,98939.19
2022-09-12T09:07:07.870Z,98940.31
2022-09-12T09:10:08.829Z,98949.25
2022-09-12T09:13:05.039Z,98937.78
2022-09-12T09:15:57.574Z,98933.06
2022-09-12T09:18:29.247Z,98936.56
2022-09-12T09:21:23.672Z,98932.44
2022-09-12T09:23:59.929Z,98930.88
2022-09-12T09:26:39.364Z,98928.88
2022-09-12T09:29:22.564Z,98922.13
2022-09-12T09:31:57.721Z,98923.69
2022-09-12T09:34:31.353Z,98911.84
2022-09-12T09:37:21.287Z,98913.84
2022-09-12T09:40:23.030Z,98917.00
2022-09-12T09:43:05.015Z,98919.41
2022-09-12T09:45:31.692Z,98912.72
2022-09-12T09:48:25.101Z,98920.94
2022-09-12T09:50:52.437Z,98918.31
2022-09-12T09:53:36.773Z,98922.50
2022-09-12T09:56:28.008Z,98918.31
2022-09-12T09:58:54.890Z,98920.97
2022-09-12T10:01:22.168Z,98912.78
2022-09-12T10:03:54.976Z,98904.94
2022-09-12T10:06:26.960Z,98909.13
2022-09-12T10:09:13.074Z,98908.50
2022-09-12T10:11:45.144Z,98895.69
2022-09-12T10:14:32.090Z,98889.38
2022-09-12T10:16:59.384Z,98891.53
2022-09-12T10:19:40.293Z,98879.50
2022-09-12T10:22:18.412Z,98883.13
2022-09-12T10:24:52.276Z,98879.28
2022-09-12T10:27:25.058Z,98885.16
2022-09-12T10:30:07.622Z,98881.63
2022-09-12T10:32:46.551Z,98885.69
2022-09-12T10:35:28.769Z,98886.13
2022-09-12T10:38:06.115Z,98882.16
2022-09-12T10:40:42.576Z,98885.31
2022-09-12T10:43:29.981Z,98880.13
2022-09-12T10:46:28.679Z,98876.81
2022-09-12T10:49:21.247Z,98876.06
2022-09-12T10:51:48.796Z,98866.78
2022-09-12T10:54:19.562Z,98872.75
2022-09-12T10:57:51.103Z,98868.69
2022-09-12T11:00:27.320Z,98870.31
2022-09-12T11:03:16.079Z,98870.09
2022-09-12T11:05:56.417Z,98863.63
2022-09-12T11:08:59.178Z,98858.47
2022-09-12T11:12:03.627Z,98862.16
2022-09-12T11:14:55.571Z,98858.19
2022-09-12T11:17:36.755Z,98851.59
2022-09-12T11:20:13.263Z,98857.53
2022-09-12T11:23:11.647Z,98856.00
2022-09-12T11:25:52.788Z,98845.28
2022-09-12T11:28:45.291Z,98859.22
2022-09-12T11:31:50.138Z,98850.88
2022-09-12T11:34:49.470Z,98839.75
2022-09-12T11:37:52.927Z,98843.03
2022-09-12T11:40:22.755Z,98838.06
2022-09-12T11:42:55.500Z,98841.00
2022-09-12T11:45:42.432Z,98835.41
2022-09-12T11:48:29.341Z,98827.09
2022-09-12T11:50:57.995Z,98824.63
2022-09-12T11:53:33.986Z,98829.63
2022-09-12T11:56:17.036Z,98834.78
2022-09-12T11:58:59.343Z,98835.56
2022-09-12T12:01:40.438Z,98826.84
2022-09-12T12:04:12.792Z,98831.03
2022-09-12T12:07:05.925Z,98824.84
2022-09-12T12:09:33.910Z,98822.41
2022-09-12T12:12:07.544Z,98824.28
2022-09-12T12:14:51.114Z,98819.28
2022-09-12T12:17:21.138Z,98815.09
2022-09-12T12:20:03.531Z,98810.66
2022-09-12T12:22:32.362Z,98810.25
2022-09-12T12:25:17.225Z,98807.06
2022-09-12T12:27:59.001Z,98803.16
2022-09-12T12:30:31.772Z,98797.66
2022-09-12T12:33:27.143Z,98794.16
2022-09-12T12:35:59.752Z,98796.38
2022-09-12T12:38:38.145Z,98793.84
2022-09-12T12:41:16.620Z,98789.13
2022-09-12T12:43:52.196Z,98786.44
2022-09-12T12:46:22.311Z,98782.81
2022-09-12T12:49:19.636Z,98779.66
2022-09-12T12:51:53.027Z,98765.78
2022-09-12T12:54:49.587Z,98766.50
2022-09-12T12:57:30.598Z,98764.59
2022-09-12T13:00:04.575Z,98758.28
2022-09-12T13:02:41.264Z,98766.50
2022-09-12T13:05:21.877Z,98760.13
2022-09-12T13:07:56.651Z,98760.16
2022-09-12T13:10:29.373Z,98772.44
2022-09-12T13:13:01.294Z,98766.28
2022-09-12T13:15:37.074Z,98752.16
2022-09-12T13:18:09.261Z,98751.78
2022-09-12T13:20:47.275Z,98742.28
2022-09-12T13:23:32.412Z,98735.63
2022-09-12T13:26:01.668Z,98741.13
2022-09-12T13:28:30.924Z,98731.50
2022-09-12T13:31:22.449Z,98735.75
2022-09-12T13:33:56.970Z,98730.03
2022-09-12T13:36:44.612Z,98736.59
2022-09-12T13:39:49.620Z,98725.09
2022-09-12T13:42:40.903Z,98728.22
2022-09-12T13:45:36.591Z,98733.38
2022-09-12T13:48:04.399Z,98731.25
2022-09-12T13:50:37.617Z,98732.44
2022-09-12T13:53:12.641Z,98726.16
2022-09-12T13:55:47.739Z,98721.13
2022-09-12T13:58:31.849Z,98730.22
2022-09-12T14:01:15.814Z,98717.44
2022-09-12T14:04:11.238Z,98711.16
2022-09-12T14:06:50.477Z,98709.66
2022-09-12T14:09:31.010Z,98709.53
2022-09-12T14:11:58.937Z,98695.84
2022-09-12T14:14:36.487Z,98702.84
2022-09-12T14:17:24.607Z,98701.66
2022-09-12T14:19:52.710Z,98697.53
2022-09-12T14:22:19.497Z,98700.31
2022-09-12T14:24:50.343Z,98700.53
2022-09-12T14:27:24.470Z,98692.34
2022-09-12T14:30:00.434Z,98684.63
2022-09-12T14:32:27.042Z,98690.63
2022-09-12T14:35:18.617Z,98681.31
2022-09-12T14:37:50.713Z,98683.03
2022-09-12T14:40:23.468Z,98676.66
2022-09-12T14:42:52.669Z,98671.22
2022-09-12T14:45:30.981Z,98666.94
2022-09-12T14:47:58.584Z,98666.34
2022-09-12T14:50:29.551Z,98665.66
2022-09-12T14:53:21.658Z,98669.59
2022-09-12T14:56:14.030Z,98660.75
2022-09-12T14:58:41.921Z,98663.28
2022-09-12T15:01:08.568Z,98663.81
2022-09-12T15:03:36.472Z,98655.44
2022-09-12T15:06:07.830Z,98656.22
2022-09-12T15:08:34.553Z,98653.25
2022-09-12T15:11:01.229Z,98646.03
2022-09-12T15:13:30.591Z,98654.31
2022-09-12T15:15:59.302Z,98644.94
2022-09-12T15:18:29.081Z,98655.88
2022-09-12T15:21:03.755Z,98649.47
2022-09-12T15:23:41.459Z,98644.94
2022-09-12T15:26:11.294Z,98637.38
2022-09-12T15:28:38.855Z,98642.72
2022-09-12T15:31:13.022Z,98644.31
2022-09-12T15:33:39.638Z,98644.16
2022-09-12T15:36:16.423Z,98644.75
2022-09-12T15:38:43.733Z,98647.09
2022-09-12T15:41:37.825Z,98655.22
2022-09-12T15:44:06.113Z,98644.97
2022-09-12T15:46:32.747Z,98647.09
2022-09-12T15:48:59.377Z,98644.16
2022-09-12T15:51:25.991Z,98630.69
2022-09-12T15:53:52.770Z,98634.78
2022-09-12T15:56:21.697Z,98629.28
2022-09-12T15:58:58.790Z,98630.94
2022-09-12T16:01:28.616Z,98625.03
2022-09-12T16:03:55.683Z,98617.75
2022-09-12T16:06:23.338Z,98616.66
2022-09-12T16:08:49.976Z,98612.25
2022-09-12T16:11:25.963Z,98612.09
2022-09-12T16:13:53.805Z,98613.41
2022-09-12T16:16:20.687Z,98619.75
2022-09-12T16:18:47.518Z,98613.53
2022-09-12T16:21:15.766Z,98606.31
2022-09-12T16:23:47.238Z,98607.03
2022-09-12T16:26:14.526Z,98599.59
2022-09-12T16:28:41.287Z,98610.19
2022-09-12T16:31:11.903Z,98602.09
2022-09-12T16:33:40.247Z,98591.91
2022-09-12T16:36:13.725Z,98599.16
2022-09-12T16:38:42.936Z,98593.19
2022-09-12T16:41:10.396Z,98591.28
2022-09-12T16:43:37.427Z,98585.59
2022-09-12T16:46:17.521Z,98589.72
2022-09-12T16:48:51.792Z,98590.78
2022-09-12T16:51:23.514Z,98597.31
2022-09-12T16:53:51.498Z,98578.88
2022-09-12T16:56:18.717Z,98586.03
2022-09-12T16:58:45.968Z,98587.97
2022-09-12T17:01:19.361Z,98584.91
2022-09-12T17:03:46.214Z,98600.63
2022-09-12T17:06:16.511Z,98589.06
2022-09-12T17:08:48.211Z,98597.09
2022-09-12T17:11:22.405Z,98588.53
2022-09-12T17:14:05.396Z,98585.06
2022-09-12T17:16:40.329Z,98578.22
2022-09-12T17:19:08.508Z,98580.28
2022-09-12T17:21:35.807Z,98580.38
2022-09-12T17:24:04.200Z,98575.41
2022-09-12T17:26:31.035Z,98579.53
2022-09-12T17:28:57.838Z,98581.56
2022-09-12T17:31:24.598Z,98576.19
2022-09-12T17:33:59.494Z,98575.91
2022-09-12T17:36:27.387Z,98574.88
2022-09-12T17:38:54.199Z,98577.00
2022-09-12T17:41:25.104Z,98576.22
2022-09-12T17:43:57.436Z,98570.47
2022-09-12T17:46:34.827Z,98586.03
2022-09-12T17:49:07.746Z,98582.84
2022-09-12T17:51:35.113Z,98585.41
2022-09-12T17:54:12.108Z,98595.50
2022-09-12T17:56:39.653Z,98598.84
2022-09-12T17:59:09.922Z,98598.38
2022-09-12T18:01:55.157Z,98596.69
2022-09-12T18:04:21.919Z,98600.16
2022-09-12T18:06:49.456Z,98600.63
2022-09-12T18:09:19.630Z,98603.88
2022-09-12T18:11:48.049Z,98604.28
2022-09-12T18:14:15.896Z,98593.16
2022-09-12T18:16:43.430Z,98601.22
2022-09-12T18:19:11.162Z,98589.56
2022-09-12T18:21:38.331Z,98589.91
2022-09-12T18:24:05.933Z,98590.50
2022-09-12T18:26:33.454Z,98590.59
2022-09-12T18:29:00.253Z,98571.22
2022-09-12T18:31:29.745Z,98568.38
2022-09-12T18:33:59.642Z,98585.56
2022-09-12T18:36:27.182Z,98589.06
2022-09-12T18:38:54.078Z,98599.63
2022-09-12T18:41:23.058Z,98597.34
2022-09-12T18:44:01.372Z,98606.31
2022-09-12T18:46:29.761Z,98594.16
2022-09-12T18:48:57.863Z,98577.88
2022-09-12T18:51:31.477Z,98583.66
2022-09-12T18:54:09.838Z,98596.50
2022-09-12T18:56:38.317Z,98591.91
2022-09-12T18:59:06.887Z,98592.44
2022-09-12T19:01:37.254Z,98596.66
2022-09-12T19:04:07.471Z,98591.50
2022-09-12T19:06:38.851Z,98592.94
2022-09-12T19:09:08.225Z,98586.28
2022-09-12T19:11:38.326Z,98582.28
2022-09-12T19:14:05.920Z,98594.63
2022-09-12T19:16:33.283Z,98592.34
2022-09-12T19:19:00.572Z,98584.75
2022-09-12T19:21:31.921Z,98585.34
2022-09-12T19:24:09.963Z,98590.53
2022-09-12T19:26:38.808Z,98588.69
2022-09-12T19:29:08.429Z,98579.78
2022-09-12T19:31:35.490Z,98583.66
2022-09-12T19:34:07.016Z,98576.91
2022-09-12T19:36:44.981Z,98583.47
2022-09-12T19:39:12.866Z,98582.41
2022-09-12T19:41:39.524Z,98578.47
2022-09-12T19:44:06.399Z,98566.81
2022-09-12T19:46:33.183Z,98577.31
2022-09-12T19:49:00.071Z,98579.22
2022-09-12T19:51:26.771Z,98575.34
2022-09-12T19:53:53.617Z,98567.91
2022-09-12T19:56:20.813Z,98557.72
2022-09-12T19:58:55.023Z,98552.09
2022-09-12T20:01:28.053Z,98548.19
2022-09-12T20:03:55.880Z,98553.38
2022-09-12T20:06:22.688Z,98555.06
2022-09-12T20:08:51.195Z,98554.00
2022-09-12T20:11:20.692Z,98540.88
2022-09-12T20:13:47.962Z,98548.50
2022-09-12T20:16:24.478Z,98536.69
2022-09-12T20:19:05.944Z,98530.78
2022-09-12T20:21:35.722Z,98527.59
2022-09-12T20:24:13.525Z,98525.91
2022-09-12T20:26:40.451Z,98523.06
2022-09-12T20:29:07.637Z,98517.84
2022-09-12T20:31:36.671Z,98527.69
2022-09-12T20:34:04.962Z,98521.69
2022-09-12T20:36:32.083Z,98517.81
2022-09-12T20:39:01.186Z,98516.69
2022-09-12T20:41:32.335Z,98525.91
2022-09-12T20:43:59.188Z,98520.69
2022-09-12T20:46:27.791Z,98530.47
2022-09-12T20:48:54.848Z,98530.66
2022-09-12T20:51:22.482Z,98522.41
2022-09-12T20:53:54.480Z,98514.97
2022-09-12T20:56:22.052Z,98511.78
2022-09-12T20:58:48.799Z,98509.66
2022-09-12T21:01:16.548Z,98513.69
2022-09-12T21:03:44.276Z,98500.41
2022-09-12T21:06:12.635Z,98496.56
2022-09-12T21:08:39.899Z,98494.94
2022-09-12T21:11:07.303Z,98494.13
2022-09-12T21:13:34.411Z,98491.75
2022-09-12T21:16:17.042Z,98492.78
2022-09-12T21:18:46.412Z,98484.19
2022-09-12T21:21:15.634Z,98498.41
2022-09-12T21:23:42.580Z,98492.25
2022-09-12T21:26:09.592Z,98494.94
2022-09-12T21:28:36.452Z,98498.56
2022-09-12T21:31:03.228Z,98496.97
2022-09-12T21:33:30.334Z,98489.31
2022-09-12T21:36:03.576Z,98490.00
2022-09-12T21:38:30.888Z,98489.06
2022-09-12T21:41:23.655Z,98492.88
2022-09-12T21:43:50.587Z,98488.38
2022-09-12T21:46:17.281Z,98497.66
2022-09-12T21:48:44.055Z,98492.75
2022-09-12T21:51:10.700Z,98499.50
2022-09-12T21:53:37.551Z,98489.72
2022-09-12T21:56:07.528Z,98491.25
2022-09-12T21:58:35.251Z,98497.53
2022-09-12T22:01:02.053Z,98501.59
2022-09-12T22:03:29.784Z,98506.28
2022-09-12T22:06:01.958Z,98498.19
2022-09-12T22:08:29.969Z,98487.78
2022-09-12T22:11:02.042Z,98482.78
2022-09-12T22:13:32.145Z,98478.56
2022-09-12T22:16:02.046Z,98478.00
2022-09-12T22:18:29.895Z,98484.66
2022-09-12T22:21:06.860Z,98492.94
2022-09-12T22:23:52.175Z,98490.25
2022-09-12T22:26:23.432Z,98488.34
2022-09-12T22:28:51.129Z,98485.13
2022-09-12T22:31:18.157Z,98480.69
2022-09-12T22:33:45.623Z,98473.78
2022-09-12T22:36:13.043Z,98468.31
2022-09-12T22:38:40.263Z,98465.34
2022-09-12T22:41:10.019Z,98464.06
2022-09-12T22:43:37.140Z,98463.22
2022-09-12T22:46:12.545Z,98463.47
2022-09-12T22:48:40.272Z,98464.47
2022-09-12T22:51:07.595Z,98467.22
2022-09-12T22:53:34.832Z,98457.50
2022-09-12T22:56:02.427Z,98462.34
2022-09-12T22:58:29.059Z,98456.97
2022-09-12T23:00:55.698Z,98455.16
2022-09-12T23:03:22.381Z,98439.16
2022-09-12T23:05:49.466Z,98445.56
2022-09-12T23:08:19.206Z,98453.00
2022-09-12T23:10:47.817Z,98456.28
2022-09-12T23:13:14.872Z,98457.28
2022-09-12T23:15:41.436Z,98454.81
2022-09-12T23:18:08.400Z,98450.41
2022-09-12T23:20:34.967Z,98454.28
2022-09-12T23:23:01.533Z,98453.00
2022-09-12T23:25:28.360Z,98448.41
2022-09-12T23:27:54.973Z,98452.06
2022-09-12T23:30:21.728Z,98443.38
2022-09-12T23:32:51.241Z,98436.44
2022-09-12T23:35:19.381Z,98448.94
2022-09-12T23:37:47.364Z,98447.34
2022-09-12T23:40:14.224Z,98449.38
2022-09-12T23:42:41.073Z,98452.50
2022-09-12T23:45:10.164Z,98447.00
2022-09-12T23:47:36.993Z,98449.84
2022-09-12T23:50:04.406Z,98448.88
2022-09-12T23:52:30.956Z,98446.75
2022-09-12T23:54:57.577Z,98453.56
2022-09-12T23:57:24.173Z,98458.09
2022-09-12T23:59:50.877Z,98461.31
